Time;durP1;ratioP1;P1;durP2;ratioP2;P2;SDS_P1;SDS_P2;PMS_P1;PMS_P2;Temp;Humidity;BMP_temperature;BMP_pressure;BME280_temperature;BME280_humidity;BME280_pressure;Samples;Min_cycle;Max_cycle;Signal;HPM_P1;HPM_P2
2022/02/25 00:02:03;;;;;;;;;;;4.40;99.90;;;;;;5075509;28;20280;-78
2022/02/25 00:04:28;;;;;;;;;;;4.40;99.90;;;;;;5075448;28;19908;-79
2022/02/25 00:06:54;;;;;;;;;;;4.40;99.90;;;;;;5075383;28;19995;-78
2022/02/25 00:09:19;;;;;;;;;;;4.40;99.90;;;;;;5075278;28;19913;-77
2022/02/25 00:11:45;;;;;;;;;;;4.40;99.90;;;;;;5075289;28;20352;-78
2022/02/25 00:14:10;;;;;;;;;;;4.40;99.90;;;;;;5075480;28;19909;-79
2022/02/25 00:16:37;;;;;;;;;;;4.50;99.90;;;;;;5057254;28;19908;-78
2022/02/25 00:19:02;;;;;;;;;;;4.40;99.90;;;;;;5075183;28;20001;-78
2022/02/25 00:21:28;;;;;;;;;;;4.30;99.90;;;;;;5075067;28;19912;-78
2022/02/25 00:23:53;;;;;;;;;;;4.40;99.90;;;;;;5074988;28;19913;-78
2022/02/25 00:26:19;;;;;;;;;;;4.30;99.90;;;;;;5075000;28;19999;-77
2022/02/25 00:28:44;;;;;;;;;;;4.30;99.90;;;;;;5056916;28;20284;-78
2022/02/25 00:31:10;;;;;;;;;;;4.10;99.90;;;;;;5074842;28;19912;-77
2022/02/25 00:33:35;;;;;;;;;;;4.10;99.90;;;;;;5074793;28;19909;-78
2022/02/25 00:36:01;;;;;;;;;;;4.10;99.90;;;;;;5074550;28;19914;-79
2022/02/25 00:38:27;;;;;;;;;;;4.00;99.90;;;;;;5056552;28;19909;-77
2022/02/25 00:40:53;;;;;;;;;;;4.10;99.90;;;;;;5056689;28;19916;-78
2022/02/25 00:43:18;;;;;;;;;;;4.30;99.90;;;;;;5056749;28;19931;-78
2022/02/25 00:45:44;;;;;;;;;;;4.20;99.90;;;;;;5074664;28;20022;-78
2022/02/25 00:48:09;;;;;;;;;;;4.10;99.90;;;;;;5056692;28;19982;-77
2022/02/25 00:50:35;;;;;;;;;;;4.20;99.90;;;;;;5074432;28;19951;-79
2022/02/25 00:53:01;;;;;;;;;;;4.20;99.90;;;;;;5074353;28;19958;-78
2022/02/25 00:55:26;;;;;;;;;;;4.20;99.90;;;;;;5074532;28;19913;-77
2022/02/25 00:57:52;;;;;;;;;;;4.10;99.90;;;;;;5074372;28;19915;-79
2022/02/25 01:00:18;;;;;;;;;;;4.20;99.90;;;;;;5074311;28;20391;-78
2022/02/25 01:02:44;;;;;;;;;;;4.20;99.90;;;;;;5074250;28;19912;-79
2022/02/25 01:05:10;;;;;;;;;;;4.20;99.90;;;;;;5074271;28;19919;-78
2022/02/25 01:07:38;;;;;;;;;;;4.20;99.90;;;;;;5074048;28;20376;-78
2022/02/25 01:10:04;;;;;;;;;;;4.10;99.90;;;;;;5074461;28;19947;-78
2022/02/25 01:12:30;;;;;;;;;;;4.10;99.90;;;;;;5074406;28;19912;-78
2022/02/25 01:14:56;;;;;;;;;;;4.00;99.90;;;;;;5074325;28;19916;-78
2022/02/25 01:17:21;;;;;;;;;;;4.00;99.90;;;;;;5074102;28;20268;-78
2022/02/25 01:19:47;;;;;;;;;;;3.90;99.90;;;;;;5074177;28;20390;-77
2022/02/25 01:22:12;;;;;;;;;;;4.00;99.90;;;;;;5073990;28;19931;-78
2022/02/25 01:24:38;;;;;;;;;;;3.90;99.90;;;;;;5074084;28;19912;-78
2022/02/25 01:27:05;;;;;;;;;;;3.80;99.90;;;;;;5074043;28;20406;-78
2022/02/25 01:29:30;;;;;;;;;;;3.70;99.90;;;;;;5073837;28;20372;-77
2022/02/25 01:31:56;;;;;;;;;;;3.70;99.90;;;;;;5073852;28;19915;-77
2022/02/25 01:34:22;;;;;;;;;;;3.70;99.90;;;;;;5073852;28;19908;-78
2022/02/25 01:36:47;;;;;;;;;;;3.80;99.90;;;;;;5073833;28;19920;-78
2022/02/25 01:39:14;;;;;;;;;;;3.80;99.90;;;;;;5073650;28;20027;-78
2022/02/25 01:41:39;;;;;;;;;;;3.90;99.90;;;;;;5073769;28;19909;-78
2022/02/25 01:44:25;;;;;;;;;;;3.90;99.90;;;;;;5073703;28;20378;-77
2022/02/25 01:46:50;;;;;;;;;;;3.90;99.90;;;;;;5073797;28;19940;-78
2022/02/25 01:49:16;;;;;;;;;;;3.80;99.90;;;;;;5055668;28;19958;-78
2022/02/25 01:51:43;;;;;;;;;;;3.80;99.90;;;;;;5073871;28;19912;-77
2022/02/25 01:54:09;;;;;;;;;;;3.80;99.90;;;;;;5055505;28;19908;-78
2022/02/25 01:56:38;;;;;;;;;;;3.70;99.90;;;;;;5055639;28;19951;-78
2022/02/25 01:59:04;;;;;;;;;;;3.90;99.90;;;;;;5073589;28;19920;-79
2022/02/25 02:01:30;;;;;;;;;;;3.80;99.90;;;;;;5073545;28;19908;-78
2022/02/25 02:03:56;;;;;;;;;;;3.80;99.90;;;;;;5074010;28;19995;-78
2022/02/25 02:06:22;;;;;;;;;;;3.80;99.90;;;;;;5073519;28;20279;-78
2022/02/25 02:08:48;;;;;;;;;;;3.70;99.90;;;;;;5073546;28;19912;-77
2022/02/25 02:11:42;;;;;;;;;;;3.80;99.90;;;;;;5073552;28;19965;-79
2022/02/25 02:14:12;;;;;;;;;;;3.80;99.90;;;;;;5060118;28;19908;-77
2022/02/25 02:16:38;;;;;;;;;;;3.70;99.90;;;;;;5055397;28;19909;-78
2022/02/25 02:19:04;;;;;;;;;;;3.70;99.90;;;;;;5073532;28;20015;-78
2022/02/25 02:21:30;;;;;;;;;;;3.60;99.90;;;;;;5077417;28;20438;-78
2022/02/25 02:23:57;;;;;;;;;;;3.80;99.90;;;;;;5077331;28;20002;-78
2022/02/25 02:26:23;;;;;;;;;;;3.70;99.90;;;;;;5077508;28;19952;-77
2022/02/25 02:28:49;;;;;;;;;;;3.60;99.90;;;;;;5077276;28;19908;-78
2022/02/25 02:31:15;;;;;;;;;;;3.50;99.90;;;;;;5077171;28;19915;-79
2022/02/25 02:33:41;;;;;;;;;;;3.60;99.90;;;;;;5059181;28;20362;-77
2022/02/25 02:36:07;;;;;;;;;;;3.60;99.90;;;;;;5076876;28;19959;-77
2022/02/25 02:38:33;;;;;;;;;;;3.60;99.90;;;;;;5077383;28;19998;-78
2022/02/25 02:40:58;;;;;;;;;;;3.70;99.90;;;;;;5058984;28;20004;-79
2022/02/25 02:43:24;;;;;;;;;;;3.60;99.90;;;;;;5076946;28;20372;-78
2022/02/25 02:45:49;;;;;;;;;;;3.60;99.90;;;;;;5076849;28;19962;-78
2022/02/25 02:48:15;;;;;;;;;;;3.80;99.90;;;;;;5076802;28;19908;-78
2022/02/25 02:50:41;;;;;;;;;;;3.90;99.90;;;;;;5076792;28;20391;-78
2022/02/25 02:53:07;;;;;;;;;;;4.00;99.90;;;;;;5076718;28;19909;-77
2022/02/25 02:55:33;;;;;;;;;;;3.90;99.90;;;;;;5076656;28;19963;-77
2022/02/25 02:57:58;;;;;;;;;;;3.80;99.90;;;;;;5076888;28;19942;-78
2022/02/25 03:00:24;;;;;;;;;;;3.90;99.90;;;;;;5076692;28;19916;-78
2022/02/25 03:02:50;;;;;;;;;;;3.90;99.90;;;;;;5076611;28;19938;-78
2022/02/25 03:05:18;;;;;;;;;;;3.80;99.90;;;;;;5076589;28;19916;-79
2022/02/25 03:07:45;;;;;;;;;;;3.80;99.90;;;;;;5058564;28;19955;-78
2022/02/25 03:10:12;;;;;;;;;;;3.60;99.90;;;;;;5076490;28;19909;-77
2022/02/25 03:12:37;;;;;;;;;;;3.70;99.90;;;;;;5076427;28;19915;-77
2022/02/25 03:15:03;;;;;;;;;;;3.60;99.90;;;;;;5076432;28;19909;-77
2022/02/25 03:17:29;;;;;;;;;;;3.60;99.90;;;;;;5058370;28;19908;-78
2022/02/25 03:19:54;;;;;;;;;;;3.60;99.90;;;;;;5058290;28;20283;-78
2022/02/25 03:22:20;;;;;;;;;;;3.60;99.90;;;;;;5076346;28;19909;-78
2022/02/25 03:24:45;;;;;;;;;;;3.70;99.90;;;;;;5076172;28;19970;-78
2022/02/25 03:27:11;;;;;;;;;;;3.60;99.90;;;;;;5058238;28;19908;-78
2022/02/25 03:29:37;;;;;;;;;;;3.70;99.90;;;;;;5076122;28;20276;-78
2022/02/25 03:32:02;;;;;;;;;;;3.80;99.90;;;;;;5074937;28;19915;-79
2022/02/25 03:34:28;;;;;;;;;;;3.80;99.90;;;;;;5076199;28;20379;-78
2022/02/25 03:36:53;;;;;;;;;;;3.70;99.90;;;;;;5075916;28;19978;-79
2022/02/25 03:39:19;;;;;;;;;;;3.80;99.90;;;;;;5076037;28;20397;-79
2022/02/25 03:41:44;;;;;;;;;;;3.60;99.90;;;;;;5075878;28;19916;-78
2022/02/25 03:44:10;;;;;;;;;;;3.50;99.90;;;;;;5075797;28;19992;-78
2022/02/25 03:46:36;;;;;;;;;;;3.50;99.90;;;;;;5076209;28;19909;-77
2022/02/25 03:49:01;;;;;;;;;;;3.60;99.90;;;;;;5075852;28;20372;-79
2022/02/25 03:51:29;;;;;;;;;;;3.50;99.90;;;;;;5075700;28;20003;-78
2022/02/25 03:53:54;;;;;;;;;;;3.50;99.90;;;;;;5075557;28;19916;-78
2022/02/25 03:56:20;;;;;;;;;;;3.60;99.90;;;;;;5075651;28;20433;-78
2022/02/25 03:58:46;;;;;;;;;;;3.60;99.90;;;;;;5075496;28;19908;-79
2022/02/25 04:01:11;;;;;;;;;;;3.60;99.90;;;;;;5075648;28;20275;-78
2022/02/25 04:03:37;;;;;;;;;;;3.50;99.90;;;;;;5075449;28;19930;-78
2022/02/25 04:06:03;;;;;;;;;;;3.50;99.90;;;;;;5075327;28;19950;-77
2022/02/25 04:08:29;;;;;;;;;;;3.60;99.90;;;;;;5075377;28;19915;-78
2022/02/25 04:10:55;;;;;;;;;;;3.50;99.90;;;;;;5075475;28;19908;-78
2022/02/25 04:13:20;;;;;;;;;;;3.60;99.90;;;;;;5075229;28;19931;-78
2022/02/25 04:15:46;;;;;;;;;;;3.60;99.90;;;;;;5075132;28;19932;-77
2022/02/25 04:18:12;;;;;;;;;;;3.50;99.90;;;;;;5075437;28;19912;-77
2022/02/25 04:20:37;;;;;;;;;;;3.50;99.90;;;;;;5075300;28;19913;-78
2022/02/25 04:23:03;;;;;;;;;;;3.60;99.90;;;;;;5075043;28;19908;-78
2022/02/25 04:25:29;;;;;;;;;;;3.60;99.90;;;;;;5074988;28;19909;-78
2022/02/25 04:27:55;;;;;;;;;;;3.50;99.90;;;;;;5075135;28;19916;-78
2022/02/25 04:30:21;;;;;;;;;;;3.50;99.90;;;;;;5056960;28;19912;-78
2022/02/25 04:32:47;;;;;;;;;;;3.60;99.90;;;;;;5074829;28;19908;-77
2022/02/25 04:35:12;;;;;;;;;;;3.60;99.90;;;;;;5074755;28;19909;-78
2022/02/25 04:37:38;;;;;;;;;;;3.70;99.90;;;;;;5074345;28;19999;-78
2022/02/25 04:40:05;;;;;;;;;;;3.40;99.90;;;;;;5074591;28;19923;-78
2022/02/25 04:42:30;;;;;;;;;;;3.50;99.90;;;;;;5074173;28;20284;-78
2022/02/25 04:44:56;;;;;;;;;;;3.50;99.90;;;;;;5074703;28;19916;-78
2022/02/25 04:47:22;;;;;;;;;;;3.60;99.90;;;;;;5074531;28;19909;-78
2022/02/25 04:49:47;;;;;;;;;;;3.60;99.90;;;;;;5074762;28;20330;-79
2022/02/25 04:52:13;;;;;;;;;;;3.50;99.90;;;;;;5074600;28;19909;-79
2022/02/25 04:54:39;;;;;;;;;;;3.60;99.90;;;;;;5074562;28;19909;-79
2022/02/25 04:57:05;;;;;;;;;;;3.50;99.90;;;;;;5074419;28;20306;-77
2022/02/25 04:59:30;;;;;;;;;;;3.50;99.90;;;;;;5074310;28;19920;-77
2022/02/25 05:01:56;;;;;;;;;;;3.50;99.90;;;;;;5074367;28;19931;-79
2022/02/25 05:04:21;;;;;;;;;;;3.30;99.90;;;;;;5074322;28;19923;-78
2022/02/25 05:06:47;;;;;;;;;;;3.20;99.90;;;;;;5074216;28;19908;-78
2022/02/25 05:09:13;;;;;;;;;;;3.00;99.90;;;;;;5074178;28;20019;-78
2022/02/25 05:11:38;;;;;;;;;;;3.00;99.90;;;;;;5074467;28;19909;-78
2022/02/25 05:14:04;;;;;;;;;;;3.00;99.90;;;;;;5074195;28;20045;-77
2022/02/25 05:22:00;;;;;;;;;;;3.10;99.90;;;;;;5073257;28;20370;-78
2022/02/25 05:24:25;;;;;;;;;;;3.00;99.90;;;;;;5074055;28;20343;-78
2022/02/25 05:26:51;;;;;;;;;;;3.00;99.90;;;;;;5073898;28;19912;-78
2022/02/25 05:29:17;;;;;;;;;;;3.00;99.90;;;;;;5073855;28;20284;-79
2022/02/25 05:31:43;;;;;;;;;;;3.10;99.90;;;;;;5074210;28;20322;-78
2022/02/25 05:34:08;;;;;;;;;;;3.10;99.90;;;;;;5073805;28;19953;-79
2022/02/25 05:36:34;;;;;;;;;;;3.20;99.90;;;;;;5055570;28;19920;-78
2022/02/25 05:39:00;;;;;;;;;;;3.20;99.90;;;;;;5073730;28;19999;-78
2022/02/25 05:41:25;;;;;;;;;;;3.30;99.90;;;;;;5073726;28;19912;-78
2022/02/25 05:43:51;;;;;;;;;;;3.30;99.90;;;;;;5055639;28;20386;-78
2022/02/25 05:46:17;;;;;;;;;;;3.20;99.90;;;;;;5073868;28;19912;-78
2022/02/25 05:48:42;;;;;;;;;;;3.10;99.90;;;;;;5055685;28;19909;-79
2022/02/25 05:51:08;;;;;;;;;;;3.10;99.90;;;;;;5073659;28;19909;-78
2022/02/25 05:53:33;;;;;;;;;;;3.10;99.90;;;;;;5073144;28;19913;-78
2022/02/25 05:55:59;;;;;;;;;;;3.20;99.90;;;;;;5073474;28;20431;-78
2022/02/25 05:58:24;;;;;;;;;;;3.10;99.90;;;;;;5073579;28;19909;-78
2022/02/25 06:00:50;;;;;;;;;;;3.10;99.90;;;;;;5073444;28;19970;-78
2022/02/25 06:03:16;;;;;;;;;;;3.10;99.90;;;;;;5055513;28;19909;-77
2022/02/25 06:05:41;;;;;;;;;;;3.00;99.90;;;;;;5073682;28;19916;-78
2022/02/25 06:08:07;;;;;;;;;;;3.10;99.90;;;;;;5073515;28;20007;-78
2022/02/25 06:10:33;;;;;;;;;;;3.20;99.90;;;;;;5073448;28;20392;-77
2022/02/25 06:13:00;;;;;;;;;;;3.10;99.90;;;;;;5073367;28;19909;-77
2022/02/25 06:15:25;;;;;;;;;;;3.10;99.90;;;;;;5073374;28;20324;-78
2022/02/25 06:17:51;;;;;;;;;;;3.00;99.90;;;;;;5073536;28;19934;-79
2022/02/25 06:20:17;;;;;;;;;;;3.00;99.90;;;;;;5073246;28;19917;-77
2022/02/25 06:22:44;;;;;;;;;;;3.10;99.90;;;;;;5073386;28;20372;-77
2022/02/25 06:25:10;;;;;;;;;;;3.00;99.90;;;;;;5073273;28;19940;-78
2022/02/25 06:27:36;;;;;;;;;;;2.80;99.90;;;;;;5073345;28;19970;-77
2022/02/25 06:30:03;;;;;;;;;;;2.70;99.90;;;;;;5073790;28;19943;-78
2022/02/25 06:32:29;;;;;;;;;;;2.70;99.90;;;;;;5073569;28;19908;-78
2022/02/25 06:34:54;;;;;;;;;;;2.80;99.90;;;;;;5073197;28;19944;-78
2022/02/25 06:37:21;;;;;;;;;;;2.80;99.90;;;;;;5073185;28;19916;-78
2022/02/25 06:39:47;;;;;;;;;;;2.90;99.90;;;;;;5073330;28;19916;-77
2022/02/25 06:42:13;;;;;;;;;;;2.90;99.90;;;;;;5073312;28;19915;-78
2022/02/25 06:44:38;;;;;;;;;;;2.90;99.90;;;;;;5073122;28;19961;-78
2022/02/25 06:47:04;;;;;;;;;;;2.80;99.90;;;;;;5073392;28;19912;-79
2022/02/25 06:49:30;;;;;;;;;;;2.80;99.90;;;;;;5073076;28;19954;-78
2022/02/25 06:51:55;;;;;;;;;;;2.80;99.90;;;;;;5073225;28;19908;-77
2022/02/25 06:54:21;;;;;;;;;;;2.80;99.90;;;;;;5072980;28;20368;-77
2022/02/25 06:56:46;;;;;;;;;;;2.80;99.90;;;;;;5072984;28;19908;-78
2022/02/25 06:59:12;;;;;;;;;;;2.90;99.90;;;;;;5072947;28;19912;-79
2022/02/25 07:01:38;;;;;;;;;;;3.00;99.90;;;;;;5073139;28;20280;-78
2022/02/25 07:04:04;;;;;;;;;;;3.00;99.90;;;;;;5072887;28;19915;-79
2022/02/25 07:06:29;;;;;;;;;;;3.00;99.90;;;;;;5057206;28;19909;-80
2022/02/25 07:08:55;;;;;;;;;;;3.00;99.90;;;;;;5076948;28;20441;-78
2022/02/25 07:11:21;;;;;;;;;;;3.00;99.90;;;;;;5076442;28;19909;-77
2022/02/25 07:13:47;;;;;;;;;;;3.20;99.90;;;;;;5076488;28;20276;-78
2022/02/25 07:16:13;;;;;;;;;;;3.30;99.90;;;;;;5076417;28;19999;-77
2022/02/25 07:18:38;;;;;;;;;;;3.30;99.90;;;;;;5076284;28;19955;-78
2022/02/25 07:21:04;;;;;;;;;;;3.40;99.90;;;;;;5076389;28;19978;-77
2022/02/25 07:23:29;;;;;;;;;;;3.40;99.90;;;;;;5076287;28;19916;-78
2022/02/25 07:25:55;;;;;;;;;;;3.60;99.90;;;;;;5076343;28;19931;-78
2022/02/25 07:28:21;;;;;;;;;;;3.80;99.90;;;;;;5076209;28;19989;-78
2022/02/25 07:30:46;;;;;;;;;;;3.90;99.90;;;;;;5076103;28;20386;-78
2022/02/25 07:33:12;;;;;;;;;;;4.00;99.90;;;;;;5076314;28;19909;-77
2022/02/25 07:35:38;;;;;;;;;;;4.30;99.90;;;;;;5076043;28;19908;-77
2022/02/25 07:38:03;;;;;;;;;;;4.40;99.90;;;;;;5075585;28;20338;-79
2022/02/25 07:40:29;;;;;;;;;;;4.80;99.90;;;;;;5057888;28;19923;-78
2022/02/25 07:42:55;;;;;;;;;;;5.40;99.90;;;;;;5058025;28;19908;-79
2022/02/25 07:45:21;;;;;;;;;;;6.20;99.90;;;;;;5057879;28;19908;-79
2022/02/25 07:47:46;;;;;;;;;;;6.60;99.90;;;;;;5076257;28;20394;-79
2022/02/25 07:50:13;;;;;;;;;;;7.00;99.90;;;;;;5075787;28;20323;-78
2022/02/25 07:52:39;;;;;;;;;;;7.10;99.90;;;;;;5057731;28;19909;-78
2022/02/25 07:55:06;;;;;;;;;;;7.60;99.90;;;;;;5075594;28;19918;-78
2022/02/25 07:57:32;;;;;;;;;;;8.30;99.90;;;;;;5076059;28;19916;-79
2022/02/25 07:59:58;;;;;;;;;;;9.10;99.90;;;;;;5057533;28;20265;-80
2022/02/25 08:02:23;;;;;;;;;;;9.30;99.90;;;;;;5057488;28;20004;-79
2022/02/25 08:04:49;;;;;;;;;;;9.80;99.90;;;;;;5075684;28;19991;-79
2022/02/25 08:07:15;;;;;;;;;;;10.40;99.90;;;;;;5075436;28;19909;-80
2022/02/25 08:09:40;;;;;;;;;;;10.90;99.90;;;;;;5075869;28;20279;-79
2022/02/25 08:12:06;;;;;;;;;;;11.40;99.90;;;;;;5075347;28;20404;-78
2022/02/25 08:14:37;;;;;;;;;;;11.90;99.80;;;;;;5075271;28;19909;-79
2022/02/25 08:17:04;;;;;;;;;;;11.70;98.20;;;;;;5056266;28;19908;-79
2022/02/25 08:19:30;;;;;;;;;;;11.50;98.10;;;;;;5057110;28;19912;-79
2022/02/25 08:21:55;;;;;;;;;;;12.00;98.40;;;;;;5075172;28;19931;-79
2022/02/25 08:24:21;;;;;;;;;;;12.50;97.10;;;;;;5075055;28;19931;-78
2022/02/25 08:26:46;;;;;;;;;;;12.50;95.60;;;;;;5075059;28;20283;-78
2022/02/25 08:29:12;;;;;;;;;;;12.90;95.90;;;;;;5074993;28;20444;-78
2022/02/25 08:31:38;;;;;;;;;;;12.40;94.90;;;;;;5074927;28;19954;-78
2022/02/25 08:34:03;;;;;;;;;;;12.90;95.10;;;;;;5074863;28;19909;-81
2022/02/25 08:36:30;;;;;;;;;;;13.00;94.50;;;;;;5053625;28;19917;-79
2022/02/25 08:38:56;;;;;;;;;;;12.10;94.70;;;;;;5054725;28;19909;-78
2022/02/25 08:41:21;;;;;;;;;;;12.30;95.80;;;;;;5054790;28;19909;-78
2022/02/25 08:43:47;;;;;;;;;;;13.80;95.10;;;;;;5054812;28;19932;-80
2022/02/25 08:46:13;;;;;;;;;;;14.00;93.00;;;;;;5054960;28;19908;-81
2022/02/25 08:48:39;;;;;;;;;;;15.10;93.10;;;;;;5054737;28;19909;-79
2022/02/25 08:51:05;;;;;;;;;;;16.00;91.30;;;;;;5053308;28;19916;-78
2022/02/25 08:53:31;;;;;;;;;;;16.70;88.30;;;;;;5054507;28;19908;-78
2022/02/25 08:55:57;;;;;;;;;;;16.10;85.40;;;;;;5053199;28;19909;-81
2022/02/25 08:58:22;;;;;;;;;;;16.90;84.50;;;;;;5053176;28;20333;-78
2022/02/25 09:00:48;;;;;;;;;;;17.80;83.00;;;;;;5053175;28;20420;-79
2022/02/25 09:03:14;;;;;;;;;;;18.20;80.20;;;;;;5054392;28;20019;-80
2022/02/25 09:05:39;;;;;;;;;;;19.00;77.60;;;;;;5053039;28;19950;-80
2022/02/25 09:08:05;;;;;;;;;;;17.50;77.70;;;;;;5053062;28;19959;-79
2022/02/25 09:10:31;;;;;;;;;;;15.30;78.40;;;;;;5053015;28;20307;-80
2022/02/25 09:12:57;;;;;;;;;;;15.60;82.30;;;;;;5054225;28;19932;-80
2022/02/25 09:15:25;;;;;;;;;;;17.90;80.30;;;;;;5052866;28;19916;-78
2022/02/25 09:17:55;;;;;;;;;;;18.50;76.40;;;;;;5054248;28;19916;-78
2022/02/25 09:20:21;;;;;;;;;;;19.50;74.40;;;;;;5054493;28;20007;-80
2022/02/25 09:22:47;;;;;;;;;;;19.60;73.40;;;;;;5054320;28;19909;-78
2022/02/25 09:25:13;;;;;;;;;;;19.80;70.70;;;;;;5052711;28;19916;-78
2022/02/25 09:27:39;;;;;;;;;;;19.00;69.50;;;;;;5054143;28;19908;-79
2022/02/25 09:30:07;;;;;;;;;;;17.40;72.50;;;;;;5053887;28;19948;-78
2022/02/25 09:32:33;;;;;;;;;;;18.10;70.50;;;;;;5053889;28;20002;-79
2022/02/25 09:34:59;;;;;;;;;;;19.60;71.90;;;;;;5053910;28;19909;-79
2022/02/25 09:37:24;;;;;;;;;;;21.10;68.80;;;;;;5067362;28;19924;-80
2022/02/25 09:39:50;;;;;;;;;;;22.50;64.90;;;;;;5073909;28;19995;-80
2022/02/25 09:42:18;;;;;;;;;;;23.00;61.70;;;;;;5074072;28;19908;-80
2022/02/25 09:44:44;;;;;;;;;;;22.40;60.90;;;;;;5073736;28;19908;-78
2022/02/25 09:47:09;;;;;;;;;;;23.60;60.10;;;;;;5073786;28;20330;-79
2022/02/25 09:49:35;;;;;;;;;;;24.20;58.80;;;;;;5073689;28;19964;-79
2022/02/25 09:52:01;;;;;;;;;;;24.60;57.60;;;;;;5055631;28;19908;-80
2022/02/25 09:54:26;;;;;;;;;;;25.90;55.50;;;;;;5073736;28;19909;-78
2022/02/25 09:56:52;;;;;;;;;;;26.50;53.50;;;;;;5073683;28;19916;-79
2022/02/25 09:59:18;;;;;;;;;;;26.50;53.10;;;;;;5073609;28;20376;-80
2022/02/25 10:01:44;;;;;;;;;;;26.50;51.40;;;;;;5073807;28;19908;-77
2022/02/25 10:04:16;;;;;;;;;;;26.90;51.30;;;;;;5073535;28;20003;-78
2022/02/25 10:06:43;;;;;;;;;;;26.70;51.00;;;;;;5073567;28;19951;-79
2022/02/25 10:09:26;;;;;;;;;;;26.30;50.00;;;;;;5073418;28;19908;-77
2022/02/25 10:12:11;;;;;;;;;;;28.30;50.40;;;;;;5073790;28;19909;-77
2022/02/25 10:14:37;;;;;;;;;;;24.90;48.70;;;;;;5055402;28;19915;-78
2022/02/25 10:17:05;;;;;;;;;;;24.90;50.60;;;;;;5073414;28;19909;-78
2022/02/25 10:19:30;;;;;;;;;;;26.10;51.30;;;;;;5055479;28;19916;-76
2022/02/25 10:22:16;;;;;;;;;;;24.60;51.10;;;;;;5073407;28;20414;-78
2022/02/25 10:24:44;;;;;;;;;;;25.80;50.90;;;;;;5073485;28;20288;-78
2022/02/25 10:27:16;;;;;;;;;;;27.60;49.20;;;;;;5073387;28;19970;-77
2022/02/25 10:29:52;;;;;;;;;;;28.20;48.20;;;;;;5073213;28;19920;-75
2022/02/25 10:32:18;;;;;;;;;;;29.70;47.90;;;;;;5073630;28;19920;-79
2022/02/25 10:34:44;;;;;;;;;;;28.00;47.50;;;;;;5073607;28;20350;-79
2022/02/25 10:37:10;;;;;;;;;;;29.40;47.60;;;;;;5073064;28;19916;-77
2022/02/25 10:39:37;;;;;;;;;;;28.20;46.60;;;;;;5055299;28;19999;-77
2022/02/25 10:42:05;;;;;;;;;;;27.70;47.50;;;;;;5077007;28;20007;-78
2022/02/25 10:44:41;;;;;;;;;;;27.20;47.70;;;;;;5077573;28;19918;-77
2022/02/25 10:47:10;;;;;;;;;;;28.50;47.10;;;;;;5077181;28;19909;-77
2022/02/25 10:49:36;;;;;;;;;;;29.20;46.80;;;;;;5076870;28;19916;-78
2022/02/25 10:52:18;;;;;;;;;;;25.60;45.00;;;;;;5076830;28;19923;-79
2022/02/25 10:54:43;;;;;;;;;;;23.30;48.20;;;;;;5076702;28;19908;-78
2022/02/25 10:57:15;;;;;;;;;;;23.30;49.00;;;;;;5058759;28;19908;-78
2022/02/25 10:59:44;;;;;;;;;;;24.40;51.30;;;;;;5076966;28;19915;-78
2022/02/25 11:02:22;;;;;;;;;;;26.50;48.80;;;;;;5076664;28;19909;-78
2022/02/25 11:05:01;;;;;;;;;;;24.80;50.00;;;;;;5076634;28;19908;-77
2022/02/25 11:07:27;;;;;;;;;;;26.60;48.90;;;;;;5076864;28;19908;-78
2022/02/25 11:09:54;;;;;;;;;;;29.60;46.00;;;;;;5076461;28;19912;-78
2022/02/25 11:12:19;;;;;;;;;;;29.70;44.40;;;;;;5076471;28;19935;-78
2022/02/25 11:14:45;;;;;;;;;;;29.60;42.60;;;;;;5076439;28;19909;-77
2022/02/25 11:17:12;;;;;;;;;;;27.10;43.40;;;;;;5076471;28;20390;-77
2022/02/25 11:19:38;;;;;;;;;;;25.10;45.00;;;;;;5076389;28;19996;-77
2022/02/25 11:22:05;;;;;;;;;;;25.80;46.60;;;;;;5076308;28;19940;-78
2022/02/25 11:24:37;;;;;;;;;;;26.30;44.30;;;;;;5058324;28;19948;-78
2022/02/25 11:27:04;;;;;;;;;;;27.60;44.30;;;;;;5076406;28;19915;-78
2022/02/25 11:29:31;;;;;;;;;;;29.10;42.40;;;;;;5076120;28;20265;-79
2022/02/25 11:31:59;;;;;;;;;;;30.00;41.60;;;;;;5076149;28;19977;-78
2022/02/25 11:34:25;;;;;;;;;;;29.60;40.70;;;;;;5076120;28;19913;-78
2022/02/25 11:36:51;;;;;;;;;;;32.10;41.40;;;;;;5075824;28;19916;-77
2022/02/25 11:39:17;;;;;;;;;;;34.30;40.00;;;;;;5076104;28;20434;-78
2022/02/25 11:41:53;;;;;;;;;;;34.80;38.50;;;;;;5075961;28;19915;-78
2022/02/25 11:44:19;;;;;;;;;;;33.90;37.30;;;;;;5075970;28;20001;-77
2022/02/25 11:46:45;;;;;;;;;;;34.60;36.20;;;;;;5065598;28;19972;-78
2022/02/25 11:49:11;;;;;;;;;;;32.40;35.80;;;;;;5057112;28;19963;-76
2022/02/25 11:51:41;;;;;;;;;;;33.30;36.60;;;;;;5065438;28;20331;-77
2022/02/25 11:57:02;;;;;;;;;;;31.90;37.30;;;;;;5066270;28;19908;-75
2022/02/25 11:59:33;;;;;;;;;;;30.50;37.50;;;;;;5065946;28;20011;-78
2022/02/25 12:02:05;;;;;;;;;;;31.30;38.60;;;;;;5066143;28;19908;-77
2022/02/25 12:04:32;;;;;;;;;;;34.40;36.20;;;;;;5063230;28;19954;-78
2022/02/25 12:07:00;;;;;;;;;;;34.90;35.00;;;;;;5066103;28;20291;-78
2022/02/25 12:09:40;;;;;;;;;;;36.20;34.70;;;;;;5065023;28;20270;-78
2022/02/25 12:12:32;;;;;;;;;;;36.90;34.10;;;;;;5067871;28;19909;-78
2022/02/25 12:14:58;;;;;;;;;;;37.80;33.90;;;;;;5062431;28;20003;-77
2022/02/25 12:17:37;;;;;;;;;;;37.00;32.90;;;;;;5046743;28;19997;-77
2022/02/25 12:20:07;;;;;;;;;;;31.20;34.90;;;;;;5065536;28;20004;-77
2022/02/25 12:23:06;;;;;;;;;;;27.60;38.00;;;;;;5065777;28;20004;-75
2022/02/25 12:25:40;;;;;;;;;;;25.90;39.70;;;;;;5021335;28;19952;-75
2022/02/25 12:28:09;;;;;;;;;;;31.90;37.30;;;;;;5037138;28;19989;-76
2022/02/25 12:30:45;;;;;;;;;;;34.50;34.50;;;;;;5054982;28;19932;-77
2022/02/25 12:33:28;;;;;;;;;;;36.10;34.30;;;;;;5054944;28;19962;-76
2022/02/25 12:35:56;;;;;;;;;;;36.20;32.60;;;;;;5054684;28;20289;-77
2022/02/25 12:38:23;;;;;;;;;;;32.00;34.70;;;;;;5055082;28;19913;-78
2022/02/25 12:40:49;;;;;;;;;;;28.40;36.70;;;;;;5054736;28;19923;-76
2022/02/25 12:43:15;;;;;;;;;;;28.90;39.20;;;;;;5054793;28;19913;-77
2022/02/25 12:45:41;;;;;;;;;;;33.50;36.80;;;;;;5054697;28;19916;-77
2022/02/25 12:48:06;;;;;;;;;;;37.00;33.70;;;;;;5055010;28;19909;-77
2022/02/25 12:50:32;;;;;;;;;;;36.20;33.30;;;;;;5053303;28;20361;-78
2022/02/25 12:53:04;;;;;;;;;;;31.30;35.00;;;;;;5054499;28;19916;-77
2022/02/25 12:55:30;;;;;;;;;;;27.50;38.90;;;;;;5054611;28;20282;-76
2022/02/25 12:57:55;;;;;;;;;;;24.90;41.00;;;;;;5054990;28;19913;-78
2022/02/25 13:00:21;;;;;;;;;;;23.10;43.30;;;;;;5054327;28;19912;-77
2022/02/25 13:02:53;;;;;;;;;;;25.30;43.60;;;;;;5054229;28;19912;-77
2022/02/25 13:05:19;;;;;;;;;;;30.00;38.60;;;;;;5054232;28;19915;-76
2022/02/25 13:07:54;;;;;;;;;;;34.40;35.20;;;;;;5054370;28;19948;-77
2022/02/25 13:10:23;;;;;;;;;;;35.60;33.70;;;;;;5052660;28;19991;-79
2022/02/25 13:12:49;;;;;;;;;;;37.40;33.00;;;;;;5052884;28;19967;-78
2022/02/25 13:15:14;;;;;;;;;;;37.20;32.30;;;;;;5054235;28;19935;-75
2022/02/25 13:17:40;;;;;;;;;;;36.70;31.70;;;;;;5054070;28;20005;-77
2022/02/25 13:20:07;;;;;;;;;;;34.10;32.70;;;;;;5054018;28;19912;-77
2022/02/25 13:22:34;;;;;;;;;;;31.30;34.50;;;;;;5054099;28;19952;-77
2022/02/25 13:24:59;;;;;;;;;;;30.60;34.80;;;;;;5036038;28;19948;-78
2022/02/25 13:27:45;;;;;;;;;;;29.90;35.80;;;;;;5053959;28;19931;-77
2022/02/25 13:30:19;;;;;;;;;;;30.70;34.80;;;;;;5053273;28;19959;-78
2022/02/25 13:32:46;;;;;;;;;;;33.50;34.30;;;;;;5035929;28;19920;-75
2022/02/25 13:35:12;;;;;;;;;;;32.50;32.70;;;;;;5054003;28;19958;-76
2022/02/25 13:37:47;;;;;;;;;;;29.00;34.50;;;;;;5053636;28;20258;-77
2022/02/25 13:40:32;;;;;;;;;;;26.60;37.50;;;;;;5053626;28;19917;-77
2022/02/25 13:42:59;;;;;;;;;;;25.70;38.70;;;;;;5053591;28;19909;-78
2022/02/25 13:45:31;;;;;;;;;;;23.90;40.70;;;;;;5053649;28;19962;-78
2022/02/25 13:53:38;;;;;;;;;;;22.90;44.10;;;;;;5053304;28;19919;-75
2022/02/25 13:56:04;;;;;;;;;;;22.10;45.30;;;;;;5053551;28;19988;-76
2022/02/25 13:58:30;;;;;;;;;;;21.30;46.50;;;;;;5053476;28;19909;-76
2022/02/25 14:00:56;;;;;;;;;;;20.50;46.30;;;;;;5053370;28;19913;-76
2022/02/25 14:03:21;;;;;;;;;;;20.10;46.80;;;;;;5053451;28;19912;-77
2022/02/25 14:05:47;;;;;;;;;;;25.80;43.10;;;;;;5052179;28;19992;-76
2022/02/25 14:08:22;;;;;;;;;;;28.70;39.50;;;;;;5052122;28;19909;-78
2022/02/25 14:10:48;;;;;;;;;;;28.50;38.50;;;;;;5053405;28;19947;-77
2022/02/25 14:13:15;;;;;;;;;;;29.10;35.80;;;;;;5053567;28;19917;-75
2022/02/25 14:15:42;;;;;;;;;;;29.40;37.10;;;;;;5054717;28;20338;-78
2022/02/25 14:18:09;;;;;;;;;;;30.70;36.70;;;;;;5039581;28;19908;-77
2022/02/25 14:20:36;;;;;;;;;;;31.40;34.30;;;;;;5057369;28;20414;-77
2022/02/25 14:23:06;;;;;;;;;;;32.50;35.90;;;;;;5057771;28;19909;-76
2022/02/25 14:25:36;;;;;;;;;;;34.10;34.10;;;;;;5056006;28;20369;-76
2022/02/25 14:28:02;;;;;;;;;;;32.40;34.10;;;;;;5057436;28;19916;-78
2022/02/25 14:30:32;;;;;;;;;;;32.00;34.00;;;;;;5057189;28;19909;-77
2022/02/25 14:33:02;;;;;;;;;;;29.30;35.60;;;;;;5057451;28;20331;-78
2022/02/25 14:35:28;;;;;;;;;;;27.00;37.10;;;;;;5057267;28;19909;-77
2022/02/25 14:37:54;;;;;;;;;;;25.30;39.40;;;;;;5056694;28;19971;-77